ADDS METAR Data INFO
IDs: Format: Raw Decoded Include TAF

Data at: 1533 UTC 25 Feb 2018

KIGM 251451Z AUTO VRB04KT 10SM CLR M01/M15 A3023 RMK AO2 SLP224 T10111150 51023
KIGM 251351Z AUTO 05008KT 10SM CLR M02/M16 A3021 RMK AO2 SLP216 T10171156
KIGM 251251Z AUTO 05003KT 10SM CLR M04/M18 A3019 RMK AO2 SLP208 T10391178
KIGM 251151Z AUTO 20003KT 10SM CLR M04/M18 A3016 RMK AO2 SLP197 T10441178 10017 21056 53011
KIGM 251051Z AUTO 14005KT 10SM CLR M04/M18 A3014 RMK AO2 SLP191 T10391183
KIGM 250951Z AUTO 34004KT 10SM CLR M02/M18 A3013 RMK AO2 SLP186 T10221183
KIGM 250851Z AUTO 18008KT 10SM CLR M02/M17 A3012 RMK AO2 SLP182 T10171167 50008
KIGM 250751Z AUTO 16007KT 10SM CLR M03/M17 A3012 RMK AO2 SLP185 T10281172
KIGM 250651Z AUTO 06004KT 10SM CLR M02/M17 A3011 RMK AO2 SLP182 T10171167 401001061
KIGM 250551Z AUTO 00000KT 10SM CLR M01/M17 A3010 RMK AO2 SLP179 T10111172 10089 21011 51017
KIGM 250451Z AUTO 13004KT 10SM CLR 02/M18 A3008 RMK AO2 SLP172 T00171183
KIGM 250351Z AUTO 23008KT 10SM CLR 04/M19 A3006 RMK AO2 SLP162 T00391189
KIGM 250251Z AUTO 23008KT 10SM CLR 04/M20 A3004 RMK AO2 SLP160 T00441200 56009
KIGM 250151Z AUTO 22014KT 10SM CLR 06/M21 A3005 RMK AO2 SLP164 T00561206
KIGM 250051Z AUTO 22020KT 10SM CLR 07/M17 A3005 RMK AO2 SLP164 T00721172
KIGM 242351Z AUTO 22016KT 10SM CLR 09/M16 A3007 RMK AO2 SLP168 T00891156 10100 20039 58027
KIGM 242251Z AUTO 25014KT 10SM CLR 09/M22 A3010 RMK AO2 SLP176 T00941217
KIGM 242151Z AUTO 24012G17KT 10SM CLR 09/M20 A3013 RMK AO2 SLP187 T00891200
KIGM 242051Z AUTO 26006KT 10SM CLR 08/M19 A3016 RMK AO2 SLP195 T00831189 58031
KIGM 241951Z AUTO VRB03KT 10SM CLR 07/M18 A3020 RMK AO2 SLP210 T00721183
KIGM 241851Z AUTO VRB03KT 10SM CLR 06/M15 A3024 RMK AO2 SLP230 T00561150
KIGM 241751Z AUTO 00000KT 10SM CLR 03/M10 A3026 RMK AO2 SLP237 T00331100 10039 21061 50003
KIGM 241651Z AUTO 00000KT 10SM CLR 02/M08 A3027 RMK AO2 SLP241 T00221083
KIGM 241551Z AUTO 09005KT 10SM CLR 00/M06 A3027 RMK AO2 SLP242 T00001061
KIGM 241451Z AUTO 11003KT 10SM CLR M04/M07 A3025 RMK AO2 SLP238 T10391067 51010
KIGM 241351Z AUTO 12009KT 10SM CLR M06/M08 A3025 RMK AO2 SLP238 T10611083
KIGM 241251Z AUTO 12007KT 10SM CLR M06/M07 A3023 RMK AO2 SLP233 T10561072
KIGM 241151Z AUTO 10005KT 10SM CLR M06/M07 A3022 RMK AO2 SLP222 T10561072 11011 21061 53001
KIGM 241051Z AUTO 10005KT 10SM CLR M04/M06 A3020 RMK AO2 SLP216 T10441061
KIGM 240951Z AUTO 07007KT 10SM CLR M04/M06 A3021 RMK AO2 SLP215 T10391056
KIGM 240851Z AUTO 08008KT 10SM CLR M02/M06 A3021 RMK AO2 SLP217 T10221056 51012
KIGM 240751Z AUTO 04003KT 10SM CLR M02/M06 A3021 RMK AO2 SLP215 T10221061
KIGM 240651Z AUTO 21004KT 10SM CLR M04/M06 A3020 RMK AO2 SLP216 T10391056 400781039
KIGM 240551Z AUTO 15009KT 10SM CLR M02/M04 A3018 RMK AO2 SLP204 60000 T10221039 10056 21028 51016
KIGM 240451Z AUTO 20007KT 10SM CLR M02/M03 A3016 RMK AO2 SLP200 T10171033
KIGM 240351Z AUTO 34010KT 10SM BKN110 00/M02 A3015 RMK AO2 SLP196 T00001022